Time;durP1;ratioP1;P1;durP2;ratioP2;P2;SDS_P1;SDS_P2;PMS_P1;PMS_P2;Temp;Humidity;BMP_temperature;BMP_pressure;BME280_temperature;BME280_humidity;BME280_pressure;Samples;Min_cycle;Max_cycle;Signal;HPM_P1;HPM_P2
2021/01/31 00:00:16;;;;;;;2.50;2.07;;;;;;;-8.33;82.51;99819.47;6031735;29;20491;-72
2021/01/31 00:03:30;;;;;;;7.53;2.33;;;;;;;-8.10;81.59;99813.13;6032215;29;20203;-73
2021/01/31 00:06:34;;;;;;;3.90;2.10;;;;;;;-8.17;81.55;99814.59;6028034;29;20261;-74
2021/01/31 00:09:38;;;;;;;2.00;1.90;;;;;;;-8.07;81.80;99806.75;6031652;29;20289;-74
2021/01/31 00:12:41;;;;;;;2.23;2.23;;;;;;;-7.94;82.25;99802.16;6029363;29;20330;-74
2021/01/31 00:15:47;;;;;;;2.10;2.10;;;;;;;-7.65;81.78;99796.13;6029004;29;20208;-74
2021/01/31 00:18:50;;;;;;;2.20;2.20;;;;;;;-7.73;81.36;99800.38;6031610;29;20513;-74
2021/01/31 00:21:58;;;;;;;3.83;1.93;;;;;;;-7.91;82.28;99804.53;6027444;29;20277;-73
2021/01/31 00:25:03;;;;;;;2.20;2.20;;;;;;;-7.79;82.71;99796.44;6031984;29;20381;-74
2021/01/31 00:28:09;;;;;;;2.10;2.00;;;;;;;-7.49;82.40;99792.19;6044242;29;20263;-73
2021/01/31 00:31:14;;;;;;;5.53;2.20;;;;;;;-7.69;81.60;99805.28;6032534;29;20413;-73
2021/01/31 00:34:18;;;;;;;2.30;2.10;;;;;;;-7.82;82.77;99796.69;6032861;29;20525;-74
2021/01/31 00:37:23;;;;;;;2.30;2.10;;;;;;;-7.78;83.09;99798.09;6030384;29;20223;-76
2021/01/31 00:40:29;;;;;;;1.80;1.80;;;;;;;-7.67;82.51;99800.72;6027785;29;20212;-74
2021/01/31 00:43:33;;;;;;;2.33;2.33;;;;;;;-7.77;83.59;99794.50;6032090;29;20214;-75
2021/01/31 00:46:38;;;;;;;2.73;2.37;;;;;;;-7.66;83.14;99781.22;6030444;29;20211;-76
2021/01/31 00:49:43;;;;;;;3.30;1.90;;;;;;;-7.71;83.29;99799.28;6029083;29;20474;-75
2021/01/31 00:52:47;;;;;;;3.13;1.90;;;;;;;-7.73;84.13;99801.22;6029005;29;20224;-75
2021/01/31 00:55:53;;;;;;;2.37;2.20;;;;;;;-7.92;83.97;99801.06;6022301;29;20304;-75
2021/01/31 00:59:09;;;;;;;2.53;2.37;;;;;;;-7.92;84.36;99801.06;6027020;29;20635;-75
2021/01/31 01:02:17;;;;;;;2.27;2.17;;;;;;;-7.91;83.87;99809.84;6024268;29;20680;-74
2021/01/31 01:05:23;;;;;;;2.10;2.00;;;;;;;-7.80;83.83;99804.47;6025996;29;20438;-75
2021/01/31 01:08:26;;;;;;;2.87;2.20;;;;;;;-7.77;84.09;99805.09;6022466;29;20488;-75
2021/01/31 01:11:31;;;;;;;2.40;2.30;;;;;;;-7.80;83.40;99810.63;6024118;29;20378;-74
2021/01/31 01:14:35;;;;;;;2.50;2.03;;;;;;;-7.77;83.61;99805.09;6023907;29;20228;-74
2021/01/31 01:17:38;;;;;;;2.03;1.93;;;;;;;-7.65;84.03;99798.75;6022592;29;20220;-75
2021/01/31 01:20:42;;;;;;;2.33;2.23;;;;;;;-7.71;83.81;99794.00;6026464;29;20213;-74
2021/01/31 01:23:46;;;;;;;3.60;2.30;;;;;;;-7.69;83.58;99797.34;6029454;29;20228;-74
2021/01/31 01:26:50;;;;;;;3.03;2.23;;;;;;;-7.76;84.79;99795.34;6018248;29;20205;-75
2021/01/31 01:29:53;;;;;;;2.53;2.30;;;;;;;-7.78;84.69;99792.81;6025581;29;20300;-74
2021/01/31 01:32:58;;;;;;;2.60;2.20;;;;;;;-7.80;84.61;99784.16;6025043;29;20200;-74
2021/01/31 01:36:03;;;;;;;4.13;2.10;;;;;;;-7.67;85.63;99800.72;6025665;29;20204;-74
2021/01/31 01:39:07;;;;;;;2.20;2.10;;;;;;;-7.69;85.67;99797.34;6024835;29;20283;-76
2021/01/31 01:42:12;;;;;;;2.00;1.90;;;;;;;-7.55;85.94;99808.63;6032962;29;20211;-74
2021/01/31 01:45:17;;;;;;;2.20;2.20;;;;;;;-7.55;85.92;99804.16;6020634;29;20561;-77
2021/01/31 01:48:20;;;;;;;2.60;2.40;;;;;;;-7.49;85.19;99802.78;6032344;29;20212;-74
2021/01/31 01:51:31;;;;;;;2.50;2.40;;;;;;;-7.45;85.54;99798.94;6028186;29;20287;-74
2021/01/31 01:54:39;;;;;;;2.33;1.80;;;;;;;-7.61;85.07;99799.38;6024206;29;20237;-73
2021/01/31 01:57:47;;;;;;;2.00;2.00;;;;;;;-7.57;84.65;99810.56;6024197;29;20205;-73
2021/01/31 02:00:50;;;;;;;2.13;2.03;;;;;;;-7.65;84.54;99798.75;6026185;29;20527;-74
2021/01/31 02:03:58;;;;;;;2.07;2.00;;;;;;;-7.62;84.57;99803.81;6025147;29;20232;-75
2021/01/31 02:07:01;;;;;;;2.30;2.20;;;;;;;-7.67;83.99;99805.16;6027843;29;20345;-72
2021/01/31 02:10:08;;;;;;;3.80;2.10;;;;;;;-7.80;84.68;99793.91;6027200;29;20224;-73
2021/01/31 02:13:13;;;;;;;1.90;1.90;;;;;;;-7.84;83.52;99793.31;6027431;29;20225;-74
2021/01/31 02:16:26;;;;;;;1.70;1.70;;;;;;;-7.76;82.66;99798.84;6022828;29;20228;-73
2021/01/31 02:20:08;;;;;;;1.60;1.60;;;;;;;-7.89;81.22;99803.47;6026684;29;20581;-72
2021/01/31 02:23:47;;;;;;;1.60;1.50;;;;;;;-7.94;81.00;99803.00;6026604;29;20240;-72
2021/01/31 02:27:26;;;;;;;1.60;1.60;;;;;;;-8.02;80.74;99801.94;6018813;29;20243;-73
2021/01/31 02:31:17;;;;;;;2.70;1.70;;;;;;;-8.07;80.12;99799.66;6028784;29;20199;-73
2021/01/31 02:34:29;;;;;;;1.50;1.50;;;;;;;-8.12;80.25;99799.19;6016764;29;20225;-77
2021/01/31 02:37:40;;;;;;;1.60;1.60;;;;;;;-8.12;79.88;99796.53;6024542;29;20203;-73
2021/01/31 02:40:55;;;;;;;1.70;1.60;;;;;;;-8.25;79.81;99793.19;6025093;29;20208;-76
2021/01/31 02:44:02;;;;;;;1.70;1.70;;;;;;;-8.27;79.97;99804.91;6028919;29;20202;-74
2021/01/31 02:47:14;;;;;;;1.50;1.50;;;;;;;-8.17;80.03;99796.06;6025032;29;20296;-74
2021/01/31 02:50:21;;;;;;;1.43;1.43;;;;;;;-8.17;79.81;99785.50;6020742;29;20256;-74
2021/01/31 02:53:29;;;;;;;1.50;1.50;;;;;;;-8.27;79.71;99783.75;6022774;29;20622;-75
2021/01/31 02:56:39;;;;;;;1.67;1.67;;;;;;;-8.37;79.65;99778.34;6021246;29;20230;-74
2021/01/31 02:59:47;;;;;;;1.97;1.87;;;;;;;-8.41;79.88;99784.84;6020563;29;20301;-74
2021/01/31 03:02:58;;;;;;;1.60;1.50;;;;;;;-8.25;79.65;99782.63;6023095;29;20260;-74
2021/01/31 03:06:10;;;;;;;1.63;1.63;;;;;;;-8.13;78.99;99784.25;6025829;29;20241;-74
2021/01/31 03:09:19;;;;;;;1.80;1.70;;;;;;;-8.33;79.39;99785.06;6023692;29;20191;-73
2021/01/31 03:12:28;;;;;;;1.60;1.60;;;;;;;-8.19;79.06;99784.75;6022303;29;20211;-73
2021/01/31 03:15:42;;;;;;;1.77;1.77;;;;;;;-7.93;78.18;99788.78;6023690;29;20219;-74
2021/01/31 03:18:54;;;;;;;1.63;1.53;;;;;;;-8.00;77.63;99787.59;6022671;29;20553;-73
2021/01/31 03:22:03;;;;;;;1.57;1.57;;;;;;;-8.08;77.63;99789.19;6025679;29;20627;-74
2021/01/31 03:25:12;;;;;;;1.80;1.80;;;;;;;-8.18;77.66;99786.44;6024714;29;20288;-76
2021/01/31 03:28:18;;;;;;;1.50;1.50;;;;;;;-8.23;78.36;99780.69;6040139;29;20206;-74
2021/01/31 03:31:25;;;;;;;1.80;1.80;;;;;;;-8.22;78.01;99774.44;6023907;29;20283;-74
2021/01/31 03:34:35;;;;;;;1.80;1.80;;;;;;;-8.28;77.45;99780.25;6022855;29;20229;-74
2021/01/31 03:37:46;;;;;;;2.53;1.80;;;;;;;-8.10;77.32;99772.59;6023384;29;20203;-74
2021/01/31 03:40:55;;;;;;;1.77;1.77;;;;;;;-8.22;76.99;99787.66;6044570;29;20291;-73
2021/01/31 03:43:59;;;;;;;2.27;1.87;;;;;;;-8.33;77.52;99785.06;6037168;29;20634;-75
2021/01/31 03:47:07;;;;;;;1.60;1.60;;;;;;;-8.17;77.11;99774.91;6035676;29;20267;-74
2021/01/31 03:50:12;;;;;;;1.70;1.70;;;;;;;-8.23;77.12;99779.84;6021951;29;20216;-74
2021/01/31 03:53:16;;;;;;;2.17;1.60;;;;;;;-8.41;77.04;99769.81;6024376;29;20616;-74
2021/01/31 03:56:24;;;;;;;2.20;1.90;;;;;;;-8.53;77.58;99773.44;6025448;29;20219;-74
2021/01/31 03:59:33;;;;;;;1.93;1.83;;;;;;;-8.40;76.82;99757.44;6024663;29;20207;-74
2021/01/31 04:02:43;;;;;;;1.90;1.90;;;;;;;-8.24;77.00;99767.59;6038908;29;20762;-75
2021/01/31 04:05:52;;;;;;;1.70;1.70;;;;;;;-8.34;76.28;99772.78;6023015;29;20675;-74
2021/01/31 04:08:58;;;;;;;1.90;1.90;;;;;;;-8.38;76.55;99771.38;6018319;29;20213;-73
2021/01/31 04:12:03;;;;;;;2.10;2.00;;;;;;;-8.34;76.75;99765.72;6022499;29;20255;-72
2021/01/31 04:15:16;;;;;;;1.90;1.80;;;;;;;-8.68;76.47;99768.53;6022105;29;20231;-72
2021/01/31 04:18:22;;;;;;;3.07;2.00;;;;;;;-8.37;76.73;99775.72;6021438;29;20196;-75
2021/01/31 04:21:25;;;;;;;1.80;1.80;;;;;;;-8.72;77.78;99788.22;6023153;29;20199;-75
2021/01/31 04:24:30;;;;;;;1.73;1.70;;;;;;;-8.84;77.56;99790.06;6025654;29;20217;-74
2021/01/31 04:27:33;;;;;;;1.83;1.83;;;;;;;-9.03;77.98;99764.22;6028918;29;20210;-76
2021/01/31 04:30:38;;;;;;;2.10;2.03;;;;;;;-9.01;78.01;99793.16;6030538;29;20215;-74
2021/01/31 04:33:42;;;;;;;1.90;1.80;;;;;;;-9.04;78.33;99782.84;6027537;29;20211;-76
2021/01/31 04:36:46;;;;;;;1.73;1.73;;;;;;;-8.91;77.57;99794.97;6028756;29;20201;-75
2021/01/31 04:39:50;;;;;;;2.10;2.10;;;;;;;-8.92;77.58;99782.72;6027747;29;20325;-74
2021/01/31 04:42:54;;;;;;;1.70;1.70;;;;;;;-8.98;77.73;99788.47;6027977;29;20204;-74
2021/01/31 04:45:59;;;;;;;1.70;1.70;;;;;;;-8.96;78.75;99786.53;6027759;29;20308;-74
2021/01/31 04:49:19;;;;;;;2.20;2.10;;;;;;;-8.96;77.35;99786.53;6029020;29;20206;-73
2021/01/31 04:52:46;;;;;;;1.90;1.87;;;;;;;-8.91;77.88;99792.31;6026130;29;20242;-74
2021/01/31 04:56:06;;;;;;;1.47;1.47;;;;;;;-9.00;77.83;99787.75;6025330;29;20247;-75
2021/01/31 04:59:23;;;;;;;1.80;1.80;;;;;;;-9.07;78.15;99789.19;6023678;29;20208;-73
2021/01/31 05:02:31;;;;;;;1.77;1.77;;;;;;;-9.03;78.07;99780.06;6027836;29;20218;-74
2021/01/31 05:05:40;;;;;;;2.40;1.73;;;;;;;-9.11;78.36;99777.16;6028813;29;20724;-74
2021/01/31 05:08:46;;;;;;;2.20;1.67;;;;;;;-8.89;77.88;99775.50;6028074;29;20230;-72
2021/01/31 05:11:59;;;;;;;1.97;1.87;;;;;;;-8.77;77.72;99769.25;6028258;29;20503;-74
2021/01/31 05:15:12;;;;;;;1.70;1.60;;;;;;;-8.99;77.22;99778.84;6024065;29;20222;-73
2021/01/31 05:18:18;;;;;;;1.40;1.40;;;;;;;-8.94;76.64;99779.38;6026786;29;20191;-73
2021/01/31 05:21:27;;;;;;;1.67;1.67;;;;;;;-9.19;78.08;99790.13;6022873;29;20665;-73
2021/01/31 05:24:30;;;;;;;1.60;1.60;;;;;;;-8.79;77.19;99787.03;6025253;29;20212;-74
2021/01/31 05:27:35;;;;;;;1.80;1.80;;;;;;;-8.79;76.63;99779.97;6027758;29;20608;-75
2021/01/31 05:30:42;;;;;;;1.70;1.60;;;;;;;-8.87;76.63;99794.72;6025770;29;20206;-73
2021/01/31 05:33:52;;;;;;;1.77;1.67;;;;;;;-8.95;76.67;99772.38;6027784;29;20244;-73
2021/01/31 05:37:01;;;;;;;1.70;1.70;;;;;;;-8.72;77.02;99782.94;6028394;29;20206;-74
2021/01/31 05:40:08;;;;;;;2.00;1.90;;;;;;;-8.70;76.52;99775.72;6023749;29;20278;-73
2021/01/31 05:43:17;;;;;;;1.87;1.77;;;;;;;-8.83;76.77;99781.13;6030324;29;20237;-73
2021/01/31 05:46:21;;;;;;;2.00;1.70;;;;;;;-8.63;76.71;99783.09;6026784;29;20203;-72
2021/01/31 05:49:38;;;;;;;1.70;1.70;;;;;;;-8.72;76.44;99782.94;6022752;29;20199;-72
2021/01/31 05:52:41;;;;;;;1.60;1.60;;;;;;;-8.57;76.79;99784.38;6026974;29;20371;-75
2021/01/31 05:55:45;;;;;;;1.90;1.80;;;;;;;-8.64;76.97;99791.13;6022033;29;20224;-74
2021/01/31 05:58:50;;;;;;;1.47;1.47;;;;;;;-8.64;76.78;99791.97;6026834;29;20202;-75
2021/01/31 06:01:56;;;;;;;1.97;1.97;;;;;;;-8.77;77.59;99800.97;6025669;29;20503;-74
2021/01/31 06:05:16;;;;;;;1.87;1.67;;;;;;;-8.66;78.01;99798.34;6027837;29;20250;-74
2021/01/31 06:08:27;;;;;;;1.83;1.80;;;;;;;-8.77;78.14;99795.69;6024973;29;20575;-74
2021/01/31 06:11:33;;;;;;;1.50;1.50;;;;;;;-8.45;77.99;99786.06;6022383;29;20286;-75
2021/01/31 06:14:41;;;;;;;2.03;1.80;;;;;;;-8.37;76.93;99795.03;6043661;29;20227;-74
2021/01/31 06:17:55;;;;;;;1.70;1.70;;;;;;;-8.31;76.61;99788.44;6025037;29;20312;-74
2021/01/31 06:21:09;;;;;;;2.00;1.67;;;;;;;-8.33;76.62;99793.00;6026217;29;20227;-73
2021/01/31 06:24:25;;;;;;;1.70;1.70;;;;;;;-8.34;77.33;99783.38;6030347;29;20213;-74
2021/01/31 06:27:32;;;;;;;1.57;1.57;;;;;;;-8.38;78.17;99797.81;6026199;29;20211;-74
2021/01/31 06:30:42;;;;;;;1.80;1.80;;;;;;;-8.29;78.97;99786.50;6025580;29;20255;-74
2021/01/31 06:33:47;;;;;;;1.70;1.70;;;;;;;-8.18;79.83;99797.03;6022090;29;20620;-74
2021/01/31 06:37:00;;;;;;;1.90;1.90;;;;;;;-8.15;79.94;99799.44;6027009;29;20230;-74
2021/01/31 06:40:17;;;;;;;2.10;1.80;;;;;;;-8.11;79.45;99800.03;6026348;29;20508;-74
2021/01/31 06:43:37;;;;;;;1.70;1.60;;;;;;;-8.10;79.99;99802.53;6021727;29;20477;-74
2021/01/31 06:46:50;;;;;;;2.40;1.90;;;;;;;-8.00;79.82;99798.19;6022866;29;20212;-75
2021/01/31 06:50:03;;;;;;;2.03;1.93;;;;;;;-7.94;78.59;99802.16;6026643;29;20226;-74
2021/01/31 06:53:21;;;;;;;1.70;1.67;;;;;;;-7.85;78.75;99801.38;6022330;29;20224;-75
2021/01/31 06:56:55;;;;;;;1.50;1.50;;;;;;;-7.81;78.69;99797.53;6034069;29;20221;-74
2021/01/31 07:00:13;;;;;;;1.63;1.60;;;;;;;-7.98;78.95;99800.69;5970641;29;20203;-74
2021/01/31 07:04:03;;;;;;;2.33;1.50;;;;;;;-7.87;78.68;99812.09;6021858;29;20217;-74
2021/01/31 07:07:32;;;;;;;1.30;1.30;;;;;;;-7.74;78.41;99804.84;6024645;29;20212;-73
2021/01/31 07:10:48;;;;;;;1.77;1.77;;;;;;;-7.97;78.97;99803.22;6025069;29;20591;-75
2021/01/31 07:13:58;;;;;;;1.70;1.70;;;;;;;-7.99;79.64;99799.88;6022263;29;20207;-76
2021/01/31 07:17:13;;;;;;;1.73;1.70;;;;;;;-7.70;78.25;99806.25;6024277;29;20275;-75
2021/01/31 07:20:22;;;;;;;1.53;1.53;;;;;;;-7.71;77.97;99804.59;6022392;29;20700;-74
2021/01/31 07:23:28;;;;;;;1.53;1.53;;;;;;;-7.58;77.11;99795.63;6025010;29;20197;-73
2021/01/31 07:26:39;;;;;;;1.87;1.87;;;;;;;-7.67;77.35;99802.50;6024989;29;20214;-75
2021/01/31 07:29:52;;;;;;;1.87;1.80;;;;;;;-7.68;77.08;99801.66;6025471;29;20241;-74
2021/01/31 07:33:07;;;;;;;1.73;1.73;;;;;;;-7.76;77.30;99806.78;6023496;29;20196;-74
2021/01/31 07:36:19;;;;;;;2.00;1.70;;;;;;;-7.84;77.62;99819.81;6023689;29;20230;-73
2021/01/31 07:39:27;;;;;;;2.20;2.10;;;;;;;-7.89;79.08;99800.81;6025182;29;20281;-75
2021/01/31 07:42:34;;;;;;;2.17;2.10;;;;;;;-7.66;78.72;99818.28;6022575;29;20228;-72
2021/01/31 07:45:37;;;;;;;1.70;1.70;;;;;;;-7.67;78.14;99808.66;6025570;29;20279;-74
2021/01/31 07:48:58;;;;;;;1.63;1.63;;;;;;;-7.30;77.28;99818.84;6025683;29;20205;-77
2021/01/31 07:52:08;;;;;;;1.87;1.80;;;;;;;-7.17;76.28;99808.88;6024792;29;20209;-75
2021/01/31 07:55:18;;;;;;;1.87;1.70;;;;;;;-7.09;75.85;99817.03;6024236;29;20656;-75
2021/01/31 07:58:38;;;;;;;1.60;1.60;;;;;;;-7.25;76.34;99806.03;6028297;29;20263;-74
2021/01/31 08:01:47;;;;;;;2.10;2.10;;;;;;;-7.27;76.44;99816.78;6030371;29;20219;-73
2021/01/31 08:04:50;;;;;;;1.60;1.60;;;;;;;-7.28;76.33;99812.44;6032310;29;20251;-75
2021/01/31 08:08:32;;;;;;;1.43;1.43;;;;;;;-7.17;76.34;99808.88;6043384;29;20201;-75
2021/01/31 08:11:56;;;;;;;1.47;1.47;;;;;;;-7.10;76.48;99810.03;6050585;29;20220;-74
2021/01/31 08:15:07;;;;;;;1.50;1.50;;;;;;;-7.01;76.90;99817.22;6024357;29;20687;-75
2021/01/31 08:18:17;;;;;;;1.80;1.80;;;;;;;-6.96;76.44;99817.69;6030046;29;20192;-73
2021/01/31 08:21:49;;;;;;;3.97;1.83;;;;;;;-7.14;77.49;99816.59;6030032;29;20207;-74
2021/01/31 08:25:02;;;;;;;1.50;1.50;;;;;;;-7.22;77.62;99821.69;6026872;29;20559;-74
2021/01/31 08:28:25;;;;;;;1.73;1.63;;;;;;;-7.40;78.18;99828.53;6027325;29;20617;-74
2021/01/31 08:31:28;;;;;;;1.60;1.60;;;;;;;-7.55;78.89;99827.16;6043350;29;20214;-75
2021/01/31 08:34:51;;;;;;;1.57;1.57;;;;;;;-7.46;78.82;99829.88;6030359;29;20297;-75
2021/01/31 08:38:14;;;;;;;1.57;1.57;;;;;;;-7.28;78.36;99832.78;6028812;29;20204;-74
2021/01/31 08:41:41;;;;;;;1.60;1.57;;;;;;;-7.29;78.07;99836.44;6032076;29;20213;-74
2021/01/31 08:44:59;;;;;;;2.13;2.00;;;;;;;-7.03;78.17;99832.41;6039357;29;20321;-74
2021/01/31 08:48:03;;;;;;;1.60;1.60;;;;;;;-7.04;77.66;99836.91;6029142;29;20207;-75
2021/01/31 08:51:15;;;;;;;2.00;2.00;;;;;;;-7.18;78.48;99844.31;6025649;29;20216;-75
2021/01/31 08:54:20;;;;;;;1.67;1.57;;;;;;;-7.13;78.70;99844.75;6030835;29;20220;-75
2021/01/31 08:57:26;;;;;;;1.70;1.70;;;;;;;-7.52;79.98;99845.44;6027434;29;20225;-75
2021/01/31 09:00:31;;;;;;;1.70;1.70;;;;;;;-7.19;79.49;99832.03;6029606;29;20216;-74
2021/01/31 09:03:35;;;;;;;1.80;1.80;;;;;;;-6.84;78.63;99842.28;6025414;29;20264;-74
2021/01/31 09:06:41;;;;;;;1.90;1.47;;;;;;;-6.72;78.44;99850.03;6040836;29;20244;-75
2021/01/31 09:09:51;;;;;;;1.73;1.73;;;;;;;-6.66;77.87;99841.56;6021831;29;20289;-75
2021/01/31 09:13:08;;;;;;;1.90;1.90;;;;;;;-6.86;78.46;99841.59;6029528;29;20273;-76
2021/01/31 09:16:17;;;;;;;1.87;1.77;;;;;;;-6.70;77.95;99832.16;6027297;29;20681;-74
2021/01/31 09:19:23;;;;;;;1.77;1.77;;;;;;;-6.44;77.39;99836.06;6028127;29;20324;-74
2021/01/31 09:22:27;;;;;;;1.87;1.77;;;;;;;-6.37;76.90;99847.81;6022482;29;20209;-75
2021/01/31 09:25:34;;;;;;;1.60;1.60;;;;;;;-6.38;77.45;99845.31;6025855;29;20210;-76
2021/01/31 09:28:41;;;;;;;2.80;1.90;;;;;;;-6.53;78.21;99847.50;6027935;29;20525;-73
2021/01/31 09:31:49;;;;;;;1.40;1.40;;;;;;;-6.23;77.38;99845.78;6032508;29;20624;-74
2021/01/31 09:34:54;;;;;;;2.00;1.90;;;;;;;-6.20;77.03;99832.25;6027758;29;20228;-75
2021/01/31 09:38:11;;;;;;;1.60;1.60;;;;;;;-6.12;77.00;99848.34;6028478;29;20265;-76
2021/01/31 09:41:17;;;;;;;1.73;1.70;;;;;;;-6.19;77.23;99840.09;6033677;29;20288;-74
2021/01/31 09:44:21;;;;;;;2.03;1.60;;;;;;;-6.13;76.90;99841.34;6030691;29;20613;-73
2021/01/31 09:47:26;;;;;;;1.80;1.80;;;;;;;-6.11;76.45;99850.03;6028034;29;20206;-76
2021/01/31 09:50:29;;;;;;;1.77;1.67;;;;;;;-5.99;76.14;99851.59;6022268;29;20194;-74
2021/01/31 09:53:36;;;;;;;1.70;1.70;;;;;;;-5.98;75.96;99843.47;6033200;29;20245;-74
2021/01/31 09:56:41;;;;;;;1.90;1.90;;;;;;;-6.52;78.03;99854.47;6023214;29;20235;-74
2021/01/31 09:59:46;;;;;;;2.83;1.80;;;;;;;-6.33;78.13;99852.88;6032236;29;20407;-75
2021/01/31 10:02:49;;;;;;;1.73;1.70;;;;;;;-6.28;77.59;99855.97;6036779;29;20203;-75
2021/01/31 10:06:10;;;;;;;1.90;1.90;;;;;;;-6.25;77.91;99850.38;6024793;29;20250;-76
2021/01/31 10:09:14;;;;;;;1.93;1.93;;;;;;;-6.14;78.43;99842.34;6027845;29;20217;-75
2021/01/31 10:12:27;;;;;;;1.73;1.73;;;;;;;-6.02;77.49;99844.75;6026120;29;20918;-73
2021/01/31 10:15:37;;;;;;;1.80;1.80;;;;;;;-5.94;77.08;99844.91;6028424;29;20200;-75
2021/01/31 10:18:41;;;;;;;1.87;1.87;;;;;;;-5.82;76.67;99849.09;6026167;29;20279;-75
2021/01/31 10:21:51;;;;;;;2.00;2.00;;;;;;;-5.89;76.91;99847.13;6032343;29;20222;-76
2021/01/31 10:24:55;;;;;;;1.80;1.80;;;;;;;-6.11;76.62;99853.50;6024850;29;20455;-74
2021/01/31 10:27:59;;;;;;;1.40;1.40;;;;;;;-6.23;78.37;99853.75;6027071;29;20674;-72
2021/01/31 10:31:03;;;;;;;1.93;1.93;;;;;;;-5.96;77.48;99856.63;6018148;29;20619;-74
2021/01/31 10:34:10;;;;;;;3.20;3.00;;;;;;;-5.95;77.50;99858.31;6026311;29;20625;-75
2021/01/31 10:37:15;;;;;;;1.87;1.77;;;;;;;-6.19;78.11;99865.78;6018764;29;20225;-75
2021/01/31 10:40:19;;;;;;;2.27;2.27;;;;;;;-6.06;78.03;99861.09;6029245;29;20209;-74
2021/01/31 10:43:41;;;;;;;1.87;1.77;;;;;;;-5.90;78.00;99850.75;6025782;29;20210;-78
2021/01/31 10:46:45;;;;;;;1.60;1.57;;;;;;;-5.75;77.04;99854.66;6025730;29;20567;-74
2021/01/31 10:49:50;;;;;;;1.40;1.40;;;;;;;-5.62;77.58;99851.78;6029620;29;20362;-73
2021/01/31 10:52:53;;;;;;;1.87;1.77;;;;;;;-5.62;77.31;99855.25;6021929;29;20502;-75
2021/01/31 10:55:56;;;;;;;1.93;1.80;;;;;;;-5.54;77.12;99847.44;6025550;29;20225;-75
2021/01/31 10:58:59;;;;;;;2.43;1.80;;;;;;;-5.55;76.91;99840.47;6024288;29;20213;-74
2021/01/31 11:02:06;;;;;;;1.77;1.70;;;;;;;-5.52;77.68;99845.47;6023411;29;20335;-76
2021/01/31 11:05:13;;;;;;;1.70;1.60;;;;;;;-5.34;77.12;99838.47;6023034;29;20250;-74
2021/01/31 11:08:17;;;;;;;2.03;1.97;;;;;;;-5.52;76.65;99845.47;6042687;29;20218;-76
2021/01/31 11:11:21;;;;;;;1.97;1.87;;;;;;;-5.82;77.73;99840.25;6022193;29;20204;-75
2021/01/31 11:14:25;;;;;;;1.50;1.50;;;;;;;-5.59;78.00;99833.72;6030903;29;20207;-75
2021/01/31 11:17:29;;;;;;;1.90;1.90;;;;;;;-5.76;78.15;99842.38;6024070;29;20630;-76
2021/01/31 11:20:33;;;;;;;1.93;1.87;;;;;;;-6.20;81.10;99848.16;6029708;29;20212;-75
2021/01/31 11:23:36;;;;;;;2.27;2.17;;;;;;;-5.99;80.94;99841.81;6027142;29;20535;-74
2021/01/31 11:26:39;;;;;;;1.63;1.63;;;;;;;-6.13;81.11;99846.66;6027248;29;20297;-75
2021/01/31 11:29:43;;;;;;;1.70;1.70;;;;;;;-5.65;79.75;99836.09;6024400;29;20217;-76
2021/01/31 11:32:48;;;;;;;2.20;2.10;;;;;;;-5.59;79.65;99838.19;6026819;29;20266;-73
2021/01/31 11:35:51;;;;;;;1.80;1.80;;;;;;;-5.31;78.83;99827.56;6022940;29;20199;-73
2021/01/31 11:38:54;;;;;;;1.90;1.90;;;;;;;-5.24;78.47;99828.66;6019801;29;20284;-73
2021/01/31 11:41:59;;;;;;;2.00;1.70;;;;;;;-5.27;77.95;99818.34;6031240;29;20562;-75
2021/01/31 11:45:05;;;;;;;1.80;1.80;;;;;;;-5.19;78.15;99831.75;6031763;29;20609;-75
2021/01/31 11:48:11;;;;;;;1.80;1.70;;;;;;;-5.28;78.22;99832.59;6025745;29;20226;-74
2021/01/31 11:51:14;;;;;;;1.73;1.70;;;;;;;-5.43;78.98;99823.38;6023507;29;20202;-74
2021/01/31 11:54:20;;;;;;;2.17;2.07;;;;;;;-5.16;78.15;99831.47;6023315;29;20210;-77
2021/01/31 11:57:24;;;;;;;1.73;1.50;;;;;;;-4.97;77.57;99821.78;6018363;29;20273;-75
2021/01/31 12:00:27;;;;;;;1.67;1.60;;;;;;;-5.28;76.78;99821.97;6021131;29;20502;-74
2021/01/31 12:03:31;;;;;;;1.97;1.90;;;;;;;-5.30;77.95;99823.94;6023948;29;20355;-76
2021/01/31 12:06:35;;;;;;;1.93;1.93;;;;;;;-5.03;77.61;99827.69;6023851;29;20592;-75
2021/01/31 12:09:39;;;;;;;2.30;1.50;;;;;;;-5.00;77.05;99814.09;6018133;29;20214;-77
2021/01/31 12:12:42;;;;;;;2.03;1.87;;;;;;;-5.03;76.53;99814.41;6020879;29;20293;-73
2021/01/31 12:15:46;;;;;;;1.63;1.63;;;;;;;-5.08;77.05;99817.47;6030763;29;20209;-74
2021/01/31 12:18:52;;;;;;;2.87;1.80;;;;;;;-5.00;77.44;99822.06;6023504;29;20246;-73
2021/01/31 12:21:55;;;;;;;2.00;2.00;;;;;;;-4.93;77.19;99815.22;6026968;29;20205;-74
2021/01/31 12:24:58;;;;;;;1.80;1.80;;;;;;;-4.85;76.80;99818.00;6018833;29;20614;-73
2021/01/31 12:28:01;;;;;;;1.43;1.43;;;;;;;-4.74;76.47;99815.16;6035416;29;20249;-76
2021/01/31 12:31:04;;;;;;;1.60;1.57;;;;;;;-4.65;76.16;99808.97;6021883;29;20282;-75
2021/01/31 12:34:09;;;;;;;1.40;1.40;;;;;;;-4.57;76.16;99806.44;6038217;29;20252;-74
2021/01/31 12:37:14;;;;;;;1.50;1.50;;;;;;;-4.59;76.31;99797.72;6028270;29;20223;-76
2021/01/31 12:40:18;;;;;;;1.90;1.50;;;;;;;-4.53;75.88;99791.84;6026788;29;20215;-76
2021/01/31 12:43:21;;;;;;;1.47;1.47;;;;;;;-4.72;76.55;99807.84;6026430;29;20206;-75
2021/01/31 12:46:25;;;;;;;1.60;1.60;;;;;;;-4.67;76.84;99805.59;6032032;29;20211;-75
2021/01/31 12:49:30;;;;;;;2.23;1.60;;;;;;;-4.87;77.74;99803.97;6027568;29;20220;-76
2021/01/31 12:52:35;;;;;;;2.30;1.70;;;;;;;-4.78;77.50;99798.66;6029128;29;20512;-76
2021/01/31 12:55:38;;;;;;;1.63;1.63;;;;;;;-4.65;77.28;99803.66;6031152;29;20290;-75
2021/01/31 12:58:42;;;;;;;1.50;1.50;;;;;;;-4.72;77.11;99807.84;6027109;29;20265;-75
2021/01/31 13:01:45;;;;;;;1.90;1.77;;;;;;;-4.58;76.93;99794.09;6029904;29;20298;-76
2021/01/31 13:04:49;;;;;;;1.50;1.50;;;;;;;-4.57;77.00;99793.13;6028193;29;20239;-74
2021/01/31 13:07:52;;;;;;;1.40;1.40;;;;;;;-4.45;76.52;99795.44;6030076;29;20202;-73
2021/01/31 13:10:56;;;;;;;1.60;1.60;;;;;;;-4.61;76.48;99810.34;6029155;29;20217;-75
2021/01/31 13:13:59;;;;;;;1.80;1.80;;;;;;;-4.47;76.43;99793.91;6027224;29;20630;-74
2021/01/31 13:17:03;;;;;;;1.53;1.53;;;;;;;-4.49;76.73;99790.53;6017349;29;20216;-74
2021/01/31 13:20:08;;;;;;;1.70;1.70;;;;;;;-4.49;76.90;99794.03;6029121;29;20209;-77
2021/01/31 13:23:12;;;;;;;1.60;1.60;;;;;;;-4.39;76.65;99794.00;6026512;29;20709;-77
2021/01/31 13:26:19;;;;;;;1.30;1.30;;;;;;;-4.30;76.22;99790.47;6029084;29;20806;-73
2021/01/31 13:29:22;;;;;;;1.60;1.60;;;;;;;-4.34;76.29;99786.44;6038635;29;20627;-75
2021/01/31 13:32:26;;;;;;;1.33;1.33;;;;;;;-4.48;76.35;99789.56;6013367;29;20575;-76
2021/01/31 13:35:31;;;;;;;1.63;1.40;;;;;;;-4.83;77.44;99800.06;6020673;29;20519;-77
2021/01/31 13:38:35;;;;;;;1.30;1.30;;;;;;;-4.76;78.06;99793.19;6023546;29;20874;-80
2021/01/31 13:41:38;;;;;;;2.00;1.93;;;;;;;-4.58;77.73;99789.63;6023530;29;20235;-74
2021/01/31 13:44:41;;;;;;;1.60;1.60;;;;;;;-4.49;77.79;99793.19;6033243;29;20237;-75
2021/01/31 13:47:45;;;;;;;1.30;1.30;;;;;;;-4.44;77.41;99790.94;6016644;29;20214;-77
2021/01/31 13:50:50;;;;;;;3.20;1.70;;;;;;;-4.42;77.27;99773.03;6034123;29;20211;-76
2021/01/31 13:53:54;;;;;;;1.77;1.70;;;;;;;-4.36;77.16;99804.34;6038848;29;20657;-75
2021/01/31 13:56:57;;;;;;;1.63;1.63;;;;;;;-4.64;77.58;99806.16;6029455;29;20532;-74
2021/01/31 14:00:00;;;;;;;1.80;1.70;;;;;;;-4.39;77.21;99794.00;6026934;29;20206;-75
2021/01/31 14:03:04;;;;;;;1.73;1.73;;;;;;;-4.32;77.30;99789.78;6029871;29;20852;-76
2021/01/31 14:06:08;;;;;;;1.67;1.67;;;;;;;-4.26;77.13;99793.69;6028368;29;20247;-74
2021/01/31 14:09:12;;;;;;;1.70;1.60;;;;;;;-4.25;76.78;99780.22;6027291;29;20208;-76
2021/01/31 14:12:18;;;;;;;1.73;1.63;;;;;;;-4.30;76.56;99787.81;6030373;29;20195;-75
2021/01/31 14:15:21;;;;;;;1.90;1.90;;;;;;;-4.31;76.88;99795.94;6023728;29;20590;-75
2021/01/31 14:18:25;;;;;;;1.70;1.70;;;;;;;-4.33;77.18;99797.91;6020221;29;20233;-74
2021/01/31 14:21:32;;;;;;;1.73;1.73;;;;;;;-4.56;77.77;99797.44;6025190;29;20217;-73
2021/01/31 14:24:36;;;;;;;1.90;1.80;;;;;;;-4.39;77.34;99788.66;6035042;29;20211;-74
2021/01/31 14:27:39;;;;;;;1.40;1.40;;;;;;;-4.77;78.25;99794.16;6024863;29;20211;-74
2021/01/31 14:30:42;;;;;;;1.33;1.33;;;;;;;-4.55;78.51;99793.81;6023910;29;20215;-74
2021/01/31 14:33:45;;;;;;;1.53;1.53;;;;;;;-4.41;77.59;99785.31;6017722;29;21079;-73
2021/01/31 14:36:49;;;;;;;1.50;1.50;;;;;;;-4.28;76.61;99780.50;6025885;29;20195;-74
2021/01/31 14:39:53;;;;;;;1.77;1.50;;;;;;;-4.29;76.83;99789.50;6026119;29;20210;-74
2021/01/31 14:42:57;;;;;;;1.40;1.40;;;;;;;-4.34;76.33;99785.59;6041817;29;20206;-73
2021/01/31 14:46:00;;;;;;;1.60;1.60;;;;;;;-4.35;76.70;99790.06;6025799;29;20679;-76